Time;durP1;ratioP1;P1;durP2;ratioP2;P2;SDS_P1;SDS_P2;PMS_P1;PMS_P2;Temp;Humidity;BMP_temperature;BMP_pressure;BME280_temperature;BME280_humidity;BME280_pressure;Samples;Min_cycle;Max_cycle;Signal;HPM_P1;HPM_P2
2021/10/08 14:03:50;;;;;;;6.33;3.57;;;16.80;99.90;;;;;;4973540;28;20668;-72
2021/10/08 14:09:09;;;;;;;7.20;3.80;;;16.80;99.90;;;;;;4974252;28;20701;-74
2021/10/08 14:11:36;;;;;;;6.57;3.80;;;16.80;99.90;;;;;;4975489;28;20290;-74
2021/10/08 14:14:03;;;;;;;5.10;3.20;;;16.70;99.90;;;;;;4975821;28;20208;-73
2021/10/08 14:16:30;;;;;;;6.53;3.40;;;16.70;99.90;;;;;;4975953;28;20207;-73
2021/10/08 14:18:58;;;;;;;6.20;3.60;;;16.70;99.90;;;;;;4975051;28;20600;-73
2021/10/08 14:21:25;;;;;;;5.17;2.97;;;16.70;99.90;;;;;;4974577;28;20203;-74
2021/10/08 14:23:52;;;;;;;4.70;2.93;;;16.70;99.90;;;;;;4974947;28;20234;-72
2021/10/08 14:26:19;;;;;;;5.40;2.90;;;16.90;99.90;;;;;;4974953;28;20213;-73
2021/10/08 14:28:45;;;;;;;5.83;2.90;;;17.00;99.90;;;;;;4974672;28;20614;-74
2021/10/08 14:31:12;;;;;;;4.30;2.40;;;17.20;99.90;;;;;;4974872;28;20558;-70
2021/10/08 14:33:39;;;;;;;3.87;2.40;;;17.10;99.90;;;;;;4974975;28;20297;-72
2021/10/08 14:36:07;;;;;;;4.10;2.27;;;17.00;99.90;;;;;;4974921;28;20207;-73
2021/10/08 14:38:34;;;;;;;4.90;2.60;;;16.80;99.90;;;;;;4974838;28;20235;-73
2021/10/08 14:41:01;;;;;;;3.67;2.63;;;16.90;99.90;;;;;;4974777;28;20210;-72
2021/10/08 14:43:27;;;;;;;2.90;2.00;;;17.00;99.90;;;;;;4975018;28;20203;-72
2021/10/08 14:45:54;;;;;;;6.10;2.13;;;16.90;99.90;;;;;;4974897;28;20213;-73
2021/10/08 14:48:21;;;;;;;3.87;2.23;;;16.90;99.90;;;;;;4968133;28;20710;-81
2021/10/08 14:50:48;;;;;;;3.13;1.90;;;16.90;99.90;;;;;;4972568;28;20207;-73
2021/10/08 14:53:20;;;;;;;2.43;1.83;;;17.00;99.90;;;;;;4974250;28;20209;-74
2021/10/08 14:56:14;;;;;;;3.13;1.70;;;16.80;99.90;;;;;;4974610;28;20239;-77
2021/10/08 14:58:42;;;;;;;2.43;1.70;;;16.70;99.90;;;;;;4973874;28;20411;-71
2021/10/08 15:01:09;;;;;;;3.20;1.60;;;16.80;99.90;;;;;;4974442;28;20210;-74
2021/10/08 15:03:36;;;;;;;3.67;2.07;;;16.80;99.90;;;;;;4974203;28;20298;-76
2021/10/08 15:06:03;;;;;;;3.10;1.63;;;16.90;99.90;;;;;;4971783;28;20213;-75
2021/10/08 15:08:31;;;;;;;2.87;2.00;;;17.00;99.90;;;;;;4964489;28;20310;-75
2021/10/08 15:10:58;;;;;;;3.60;2.23;;;17.00;99.90;;;;;;4974547;28;20566;-76
2021/10/08 15:13:25;;;;;;;2.33;1.47;;;17.00;99.90;;;;;;4974214;28;20208;-80
2021/10/08 15:15:52;;;;;;;3.33;1.80;;;16.90;99.90;;;;;;4974352;28;20302;-76
2021/10/08 15:18:19;;;;;;;2.90;1.80;;;16.80;99.90;;;;;;4973610;28;20238;-71
2021/10/08 15:20:46;;;;;;;3.43;2.10;;;16.60;99.90;;;;;;4974755;28;20206;-74
2021/10/08 15:23:13;;;;;;;3.07;1.83;;;16.60;99.90;;;;;;4967706;28;20221;-78
2021/10/08 15:25:41;;;;;;;4.27;1.50;;;16.50;99.90;;;;;;4972796;28;20241;-74
2021/10/08 15:28:09;;;;;;;2.93;1.70;;;16.50;99.90;;;;;;4972859;28;20735;-76
2021/10/08 15:30:36;;;;;;;3.17;2.10;;;16.40;99.90;;;;;;4972422;28;20211;-74
2021/10/08 15:33:04;;;;;;;4.83;2.33;;;16.60;99.90;;;;;;4976180;28;20200;-77
2021/10/08 15:35:31;;;;;;;4.33;2.00;;;16.60;99.90;;;;;;4976822;28;20729;-77
2021/10/08 15:37:58;;;;;;;3.40;2.07;;;16.50;99.90;;;;;;4975940;28;20673;-76
2021/10/08 15:40:25;;;;;;;3.63;2.13;;;16.60;99.90;;;;;;4976810;28;20306;-77
2021/10/08 15:42:53;;;;;;;5.67;2.10;;;16.60;99.90;;;;;;4971103;28;20615;-77
2021/10/08 15:45:20;;;;;;;3.47;2.13;;;16.40;99.90;;;;;;4965261;28;21091;-78
2021/10/08 15:47:47;;;;;;;3.97;2.30;;;16.50;99.90;;;;;;4976561;28;20203;-78
2021/10/08 15:50:14;;;;;;;4.17;2.20;;;16.50;99.90;;;;;;4976685;28;20227;-79
2021/10/08 15:52:41;;;;;;;4.47;2.23;;;16.40;99.90;;;;;;4975313;28;20700;-77
2021/10/08 15:55:09;;;;;;;3.97;2.33;;;16.30;99.90;;;;;;4976609;28;20213;-75
2021/10/08 15:57:36;;;;;;;3.93;2.30;;;16.10;99.90;;;;;;4976181;28;20569;-77
2021/10/08 16:00:05;;;;;;;3.57;2.00;;;16.10;99.90;;;;;;4975553;28;20879;-76
2021/10/08 16:02:33;;;;;;;3.40;2.13;;;16.20;99.90;;;;;;4976248;28;20214;-77
2021/10/08 16:04:59;;;;;;;4.47;2.43;;;16.10;99.90;;;;;;4976121;28;20322;-74
2021/10/08 16:07:26;;;;;;;5.40;2.30;;;16.10;99.90;;;;;;4975371;28;20294;-75
2021/10/08 16:09:53;;;;;;;6.13;2.43;;;15.90;99.90;;;;;;4975952;28;20630;-71
2021/10/08 16:12:20;;;;;;;5.00;2.53;;;15.90;99.90;;;;;;4972138;28;20204;-75
2021/10/08 16:14:47;;;;;;;4.60;2.43;;;16.00;99.90;;;;;;4956434;28;20215;-76
2021/10/08 16:17:18;;;;;;;4.57;2.37;;;16.00;99.90;;;;;;4956603;28;20255;-77
2021/10/08 16:19:45;;;;;;;4.33;2.67;;;15.90;99.90;;;;;;4956394;28;20264;-76
2021/10/08 16:22:15;;;;;;;4.27;2.47;;;15.80;99.90;;;;;;4956507;28;20234;-76
2021/10/08 16:24:43;;;;;;;6.27;2.63;;;15.90;99.90;;;;;;4956461;28;20247;-73
2021/10/08 16:27:11;;;;;;;5.13;2.37;;;15.90;99.90;;;;;;4956759;28;20241;-75
2021/10/08 16:29:39;;;;;;;5.37;3.57;;;15.80;99.90;;;;;;4974499;28;20716;-75
2021/10/08 16:32:07;;;;;;;4.13;2.50;;;15.70;99.90;;;;;;4973732;28;20666;-72
2021/10/08 16:34:35;;;;;;;3.53;2.03;;;15.70;99.90;;;;;;4956598;28;20235;-74
2021/10/08 16:37:05;;;;;;;4.77;2.50;;;15.70;99.90;;;;;;4955903;28;20219;-73
2021/10/08 16:39:33;;;;;;;4.73;2.10;;;15.60;99.90;;;;;;4973278;28;20226;-73
2021/10/08 16:42:00;;;;;;;6.30;2.40;;;15.60;99.90;;;;;;4974482;28;20213;-72
2021/10/08 16:44:27;;;;;;;3.10;2.10;;;15.50;99.90;;;;;;4972977;28;20227;-73
2021/10/08 16:46:54;;;;;;;5.37;2.80;;;15.50;99.90;;;;;;4975432;28;20209;-70
2021/10/08 16:49:21;;;;;;;5.27;2.77;;;15.40;99.90;;;;;;4975218;28;20653;-74
2021/10/08 16:51:49;;;;;;;5.60;3.40;;;15.30;99.90;;;;;;4974802;28;20207;-74
2021/10/08 16:54:22;;;;;;;5.13;2.70;;;15.30;99.90;;;;;;4956566;28;20571;-73
2021/10/08 16:56:49;;;;;;;5.03;2.70;;;15.30;99.90;;;;;;4956410;29;20255;-71
2021/10/08 16:59:16;;;;;;;6.23;3.10;;;15.40;99.90;;;;;;4970853;28;20227;-76
2021/10/08 17:01:43;;;;;;;6.97;3.60;;;15.40;99.90;;;;;;4975462;28;20305;-72
2021/10/08 17:04:10;;;;;;;5.10;3.17;;;15.30;99.90;;;;;;4957218;28;20300;-75
2021/10/08 17:06:37;;;;;;;7.40;3.57;;;15.30;99.90;;;;;;4955510;28;20208;-73
2021/10/08 17:09:06;;;;;;;5.17;2.90;;;15.10;99.90;;;;;;4971929;28;20227;-74
2021/10/08 17:11:33;;;;;;;7.17;3.67;;;15.00;99.90;;;;;;4973273;28;20883;-74
2021/10/08 17:14:00;;;;;;;7.73;3.50;;;15.00;99.90;;;;;;4974497;28;20254;-73
2021/10/08 17:16:27;;;;;;;9.50;4.27;;;14.90;99.90;;;;;;4975112;28;20673;-71
2021/10/08 17:18:54;;;;;;;5.43;3.03;;;15.00;99.90;;;;;;4974645;28;20314;-73
2021/10/08 17:21:21;;;;;;;10.40;4.43;;;14.90;99.90;;;;;;4974352;28;20650;-72
2021/10/08 17:23:51;;;;;;;9.07;3.20;;;14.90;99.90;;;;;;4959983;28;20214;-78
2021/10/08 17:26:25;;;;;;;7.60;3.40;;;14.80;99.90;;;;;;4955654;28;20235;-70
2021/10/08 17:29:06;;;;;;;6.47;3.23;;;14.70;99.90;;;;;;4966778;28;20730;-73
2021/10/08 17:31:51;;;;;;;6.97;3.33;;;14.60;99.90;;;;;;4975807;28;20210;-72
2021/10/08 17:34:17;;;;;;;5.87;3.40;;;14.50;99.90;;;;;;4975701;28;20304;-72
2021/10/08 17:36:46;;;;;;;6.67;3.50;;;14.50;99.90;;;;;;4976126;28;20241;-72
2021/10/08 17:39:13;;;;;;;10.77;4.93;;;14.40;99.90;;;;;;4975570;28;20231;-73
2021/10/08 17:41:42;;;;;;;6.20;3.23;;;14.30;99.90;;;;;;4976064;28;20207;-72
2021/10/08 17:44:09;;;;;;;6.63;3.67;;;14.20;99.90;;;;;;4975752;28;20204;-72
2021/10/08 17:46:35;;;;;;;6.97;3.40;;;14.00;99.90;;;;;;4975689;28;20254;-72
2021/10/08 17:49:03;;;;;;;8.20;3.57;;;13.90;99.90;;;;;;4975336;28;20585;-72
2021/10/08 17:51:30;;;;;;;7.23;2.97;;;13.90;99.90;;;;;;4975862;28;20214;-71
2021/10/08 17:53:57;;;;;;;7.97;3.50;;;13.80;99.90;;;;;;4975397;28;20685;-72
2021/10/08 17:56:25;;;;;;;6.57;3.80;;;13.80;99.90;;;;;;4974683;28;20207;-72
2021/10/08 17:58:55;;;;;;;7.50;4.07;;;13.70;99.90;;;;;;4975337;28;20231;-73
2021/10/08 18:01:25;;;;;;;10.53;4.47;;;13.70;99.90;;;;;;4975185;28;20677;-72
2021/10/08 18:03:51;;;;;;;8.90;4.23;;;13.60;99.90;;;;;;4975439;28;20218;-73
2021/10/08 18:06:19;;;;;;;9.20;4.60;;;13.50;99.90;;;;;;4975231;28;20711;-72
2021/10/08 18:08:46;;;;;;;6.83;3.57;;;13.40;99.90;;;;;;4975142;28;20239;-73
2021/10/08 18:11:15;;;;;;;7.73;4.07;;;13.40;99.90;;;;;;4974937;28;20354;-73
2021/10/08 18:13:42;;;;;;;6.13;3.47;;;13.30;99.90;;;;;;4968599;28;20211;-73
2021/10/08 18:16:11;;;;;;;8.33;3.47;;;13.30;99.90;;;;;;4975088;28;20207;-73
2021/10/08 18:18:38;;;;;;;9.87;4.00;;;13.20;99.90;;;;;;4974889;28;20235;-73
2021/10/08 18:21:06;;;;;;;7.17;3.57;;;13.20;99.90;;;;;;4975034;28;20210;-73
2021/10/08 18:23:33;;;;;;;7.93;3.90;;;13.10;99.90;;;;;;4974682;28;20199;-74
2021/10/08 18:26:01;;;;;;;7.47;4.07;;;13.10;99.90;;;;;;4974741;28;20697;-73
2021/10/08 18:28:28;;;;;;;6.07;3.50;;;13.10;99.90;;;;;;4975126;28;20223;-74
2021/10/08 18:30:59;;;;;;;10.33;4.90;;;13.00;99.90;;;;;;4974743;28;20215;-72
2021/10/08 18:33:28;;;;;;;9.40;3.93;;;12.90;99.90;;;;;;4974774;28;20218;-72
2021/10/08 18:35:55;;;;;;;7.27;3.67;;;12.80;99.90;;;;;;4968500;28;20215;-71
2021/10/08 18:38:23;;;;;;;8.30;3.87;;;12.80;99.90;;;;;;4963987;28;20235;-71
2021/10/08 18:40:51;;;;;;;8.00;3.37;;;12.80;99.90;;;;;;4968426;28;20290;-71
2021/10/08 18:43:18;;;;;;;7.30;3.63;;;12.60;99.90;;;;;;4968595;28;20210;-71
2021/10/08 18:45:45;;;;;;;7.43;3.70;;;12.60;99.90;;;;;;4970662;28;20246;-71
2021/10/08 18:48:12;;;;;;;8.93;3.67;;;12.50;99.90;;;;;;4963755;28;20208;-71
2021/10/08 18:50:40;;;;;;;8.40;3.87;;;12.50;99.90;;;;;;4963859;28;20207;-71
2021/10/08 18:53:07;;;;;;;7.53;4.00;;;12.40;99.90;;;;;;4961270;28;20208;-71
2021/10/08 18:55:34;;;;;;;7.90;3.50;;;12.40;99.90;;;;;;4956244;28;20204;-71
2021/10/08 18:58:01;;;;;;;6.67;3.40;;;12.30;99.90;;;;;;4970455;28;20286;-71
2021/10/08 19:00:28;;;;;;;8.20;4.10;;;12.30;99.90;;;;;;4961849;28;20207;-71
2021/10/08 19:02:55;;;;;;;8.83;4.37;;;12.40;99.90;;;;;;4965856;28;20678;-71
2021/10/08 19:05:21;;;;;;;6.93;3.83;;;12.40;99.90;;;;;;4969876;28;20235;-72
2021/10/08 19:07:53;;;;;;;9.43;4.00;;;12.30;99.90;;;;;;4969253;28;20207;-72
2021/10/08 19:10:35;;;;;;;7.03;3.87;;;12.30;99.90;;;;;;4967561;28;20258;-72
2021/10/08 19:13:04;;;;;;;8.10;4.20;;;12.20;99.90;;;;;;4959912;28;20659;-72
2021/10/08 19:15:39;;;;;;;7.93;4.40;;;12.20;99.90;;;;;;4960060;28;20570;-71
2021/10/08 19:18:26;;;;;;;7.10;3.97;;;12.20;99.90;;;;;;4969557;28;20550;-72
2021/10/08 19:20:53;;;;;;;7.30;3.80;;;12.20;99.90;;;;;;4962797;28;20208;-72
2021/10/08 19:23:21;;;;;;;10.27;4.60;;;12.20;99.90;;;;;;4966451;28;20295;-72
2021/10/08 19:25:49;;;;;;;8.10;4.17;;;12.10;99.90;;;;;;4961435;28;20662;-71
2021/10/08 19:28:16;;;;;;;8.30;4.33;;;12.10;99.90;;;;;;4970863;28;20248;-72
2021/10/08 19:30:43;;;;;;;9.70;4.23;;;12.00;99.90;;;;;;4967557;28;20707;-72
2021/10/08 19:33:10;;;;;;;8.77;4.80;;;11.90;99.90;;;;;;4958894;28;20677;-71
2021/10/08 19:35:37;;;;;;;9.53;4.60;;;12.00;99.90;;;;;;4973278;28;20213;-72
2021/10/08 19:38:04;;;;;;;10.23;4.73;;;11.90;99.90;;;;;;4968937;28;20207;-71
2021/10/08 19:40:32;;;;;;;10.60;5.53;;;11.90;99.90;;;;;;4964763;28;20234;-71
2021/10/08 19:43:06;;;;;;;6.83;4.07;;;11.90;99.90;;;;;;4966554;28;20213;-72
2021/10/08 19:45:36;;;;;;;9.40;4.67;;;11.90;99.90;;;;;;4961069;28;20233;-71
2021/10/08 19:48:03;;;;;;;9.70;5.07;;;11.80;99.90;;;;;;4963937;28;20718;-72
2021/10/08 19:50:31;;;;;;;9.37;5.07;;;11.80;99.90;;;;;;4970194;28;20203;-72
2021/10/08 19:52:58;;;;;;;9.67;5.03;;;11.80;99.90;;;;;;4958552;28;20204;-71
2021/10/08 19:55:25;;;;;;;12.67;5.93;;;11.80;99.90;;;;;;4959073;28;20571;-72
2021/10/08 19:57:53;;;;;;;8.40;5.23;;;11.90;99.90;;;;;;4963034;28;20214;-72
2021/10/08 20:00:20;;;;;;;12.63;6.20;;;11.90;99.90;;;;;;4967856;28;20207;-71
2021/10/08 20:02:49;;;;;;;13.30;5.63;;;11.90;99.90;;;;;;4957138;23;20237;-72
2021/10/08 20:05:24;;;;;;;13.07;5.63;;;11.80;99.90;;;;;;4934570;29;20205;-74
2021/10/08 20:16:09;;;;;;;12.13;6.00;;;11.90;99.90;;;;;;4906560;29;20213;-75
2021/10/08 20:18:36;;;;;;;13.40;6.67;;;11.90;99.90;;;;;;4905876;29;20230;-75
2021/10/08 20:21:04;;;;;;;13.10;6.77;;;11.90;99.90;;;;;;4905343;29;20214;-75
2021/10/08 20:23:30;;;;;;;13.20;6.10;;;12.00;99.90;;;;;;4918961;29;20210;-73
2021/10/08 20:25:57;;;;;;;11.77;6.53;;;12.00;99.90;;;;;;4909291;29;20238;-74
2021/10/08 20:28:27;;;;;;;12.63;6.13;;;12.00;99.90;;;;;;4913335;29;20226;-74
2021/10/08 20:30:55;;;;;;;10.93;5.17;;;12.00;99.90;;;;;;4911740;29;20268;-75
2021/10/08 20:33:23;;;;;;;11.60;6.27;;;11.90;99.90;;;;;;4911771;29;20573;-75
2021/10/08 20:35:51;;;;;;;11.40;6.30;;;11.90;99.90;;;;;;4914336;29;20223;-75
2021/10/08 20:38:20;;;;;;;9.83;5.97;;;12.00;99.90;;;;;;4910312;29;20282;-74
2021/10/08 20:40:47;;;;;;;12.10;5.90;;;12.00;99.90;;;;;;4912915;29;20676;-74
2021/10/08 20:43:14;;;;;;;11.90;6.00;;;12.00;99.90;;;;;;4909914;29;20213;-73
2021/10/08 20:45:42;;;;;;;12.40;6.83;;;12.00;99.90;;;;;;4908070;29;20229;-73
2021/10/08 20:48:09;;;;;;;10.13;5.63;;;12.00;99.90;;;;;;4911144;29;20216;-75
2021/10/08 20:50:36;;;;;;;10.93;6.70;;;12.00;99.90;;;;;;4911732;29;20210;-74
2021/10/08 20:53:03;;;;;;;12.50;5.97;;;12.00;99.90;;;;;;4904203;29;20674;-74
2021/10/08 20:55:30;;;;;;;12.90;6.50;;;12.00;99.90;;;;;;4913600;29;20209;-74
2021/10/08 20:57:57;;;;;;;9.37;5.13;;;11.90;99.90;;;;;;4904761;29;20206;-73
2021/10/08 21:00:24;;;;;;;10.30;5.63;;;11.80;99.90;;;;;;4914603;29;20210;-73
2021/10/08 21:02:52;;;;;;;9.73;5.50;;;11.80;99.90;;;;;;4904928;29;20237;-77
2021/10/08 21:05:19;;;;;;;11.90;6.43;;;11.80;99.90;;;;;;4910555;29;20201;-76
2021/10/08 21:07:45;;;;;;;13.40;5.57;;;11.70;99.90;;;;;;4919452;29;20205;-75
2021/10/08 21:10:19;;;;;;;11.43;5.60;;;11.60;99.90;;;;;;4916261;29;20590;-75
2021/10/08 21:12:48;;;;;;;11.20;6.07;;;11.50;99.90;;;;;;4910232;29;20209;-74
2021/10/08 21:15:15;;;;;;;11.50;5.87;;;11.50;99.90;;;;;;4915841;29;20255;-75
2021/10/08 21:17:42;;;;;;;10.90;6.20;;;11.50;99.90;;;;;;4905530;29;20226;-75
2021/10/08 21:20:11;;;;;;;10.67;5.70;;;11.40;99.90;;;;;;4907284;29;20776;-75
2021/10/08 21:22:38;;;;;;;9.83;5.60;;;11.50;99.90;;;;;;4912216;29;20221;-76
2021/10/08 21:25:08;;;;;;;13.80;5.73;;;11.50;99.90;;;;;;4914556;29;20212;-76
2021/10/08 21:27:35;;;;;;;10.97;6.13;;;11.50;99.90;;;;;;4908123;29;20319;-76
2021/10/08 21:30:03;;;;;;;15.43;6.27;;;11.50;99.90;;;;;;4907830;29;20601;-76
2021/10/08 21:32:31;;;;;;;13.57;5.87;;;11.40;99.90;;;;;;4915000;29;20214;-75
2021/10/08 21:34:57;;;;;;;15.00;6.80;;;11.40;99.90;;;;;;4912094;29;20570;-75
2021/10/08 21:37:38;;;;;;;13.83;6.37;;;11.40;99.90;;;;;;4914516;29;20213;-76
2021/10/08 21:40:17;;;;;;;14.30;7.03;;;11.30;99.90;;;;;;4917867;29;20238;-75
2021/10/08 21:45:28;;;;;;;15.60;6.83;;;11.20;99.90;;;;;;4908067;29;20348;-76
2021/10/08 21:47:55;;;;;;;13.87;6.27;;;11.20;99.90;;;;;;4907231;29;20202;-76
2021/10/08 21:50:22;;;;;;;14.07;6.40;;;11.10;99.90;;;;;;4915182;29;20219;-76
2021/10/08 21:52:50;;;;;;;13.20;6.07;;;11.10;99.90;;;;;;4907437;29;20211;-76
2021/10/08 21:55:17;;;;;;;14.17;6.40;;;11.00;99.90;;;;;;4908961;29;20205;-76
2021/10/08 21:57:44;;;;;;;12.60;6.00;;;11.00;99.90;;;;;;4910110;29;20649;-75
2021/10/08 22:01:09;;;;;;;11.83;6.00;;;11.00;99.90;;;;;;4913072;29;20252;-76
2021/10/08 22:03:36;;;;;;;13.07;6.03;;;11.00;99.90;;;;;;4908074;29;20228;-76
2021/10/08 22:06:02;;;;;;;13.17;7.10;;;11.00;99.90;;;;;;4910370;29;20316;-76
2021/10/08 22:08:30;;;;;;;11.47;5.90;;;10.90;99.90;;;;;;4915217;29;20234;-75
2021/10/08 22:10:58;;;;;;;14.07;6.30;;;10.90;99.90;;;;;;4909153;29;20206;-76
2021/10/08 22:13:25;;;;;;;14.37;6.43;;;10.80;99.90;;;;;;4909434;29;20206;-74
2021/10/08 22:15:52;;;;;;;14.57;6.57;;;10.70;99.90;;;;;;4907851;29;20214;-76
2021/10/08 22:18:23;;;;;;;13.60;5.97;;;10.80;99.90;;;;;;4913546;29;20228;-76
2021/10/08 22:20:50;;;;;;;14.90;6.27;;;10.80;99.90;;;;;;4906906;29;20202;-76
2021/10/08 22:23:30;;;;;;;11.20;5.80;;;10.60;99.90;;;;;;4903301;29;20210;-74
